createdAt,value
2018-11-05T04:29:11.245Z,11.27
2018-11-05T04:31:41.577Z,12.83
2018-11-05T04:34:10.966Z,12.57
2018-11-05T04:36:40.332Z,11.27
2018-11-05T04:39:12.987Z,12.17
2018-11-05T04:41:41.480Z,12.87
2018-11-05T04:44:12.848Z,12.83
2018-11-05T04:46:41.662Z,12.83
2018-11-05T04:49:11.251Z,13.30
2018-11-05T04:51:39.897Z,13.70
2018-11-05T04:54:08.476Z,14.00
2018-11-05T04:56:37.404Z,14.60
2018-11-05T04:59:07.400Z,14.17
2018-11-05T05:01:35.879Z,13.03
2018-11-05T05:04:04.545Z,12.63
2018-11-05T05:06:33.203Z,13.90
2018-11-05T05:09:01.752Z,12.20
2018-11-05T05:11:30.289Z,12.70
2018-11-05T05:13:58.740Z,13.13
2018-11-05T05:16:27.198Z,13.20
2018-11-05T05:18:55.824Z,13.97
2018-11-05T05:21:24.431Z,13.87
2018-11-05T05:23:53.500Z,15.83
2018-11-05T05:26:21.983Z,13.77
2018-11-05T05:28:50.592Z,13.97
2018-11-05T05:31:19.071Z,14.23
2018-11-05T05:33:47.737Z,13.87
2018-11-05T05:36:16.204Z,12.77
2018-11-05T05:38:45.802Z,13.90
2018-11-05T05:41:14.360Z,14.50
2018-11-05T05:43:43.205Z,12.57
2018-11-05T05:46:12.013Z,13.60
2018-11-05T05:48:40.592Z,12.47
2018-11-05T05:51:09.089Z,14.40
2018-11-05T05:53:37.551Z,13.57
2018-11-05T05:56:06.078Z,12.73
2018-11-05T05:58:34.560Z,13.27
2018-11-05T06:01:03.085Z,13.57
2018-11-05T06:03:31.554Z,13.03
2018-11-05T06:06:00.084Z,14.10
2018-11-05T06:08:28.512Z,12.63
2018-11-05T06:10:56.988Z,13.00
2018-11-05T06:13:25.464Z,13.07
2018-11-05T06:15:54.057Z,12.47
2018-11-05T06:18:22.636Z,13.40
2018-11-05T06:20:51.111Z,12.43
2018-11-05T06:23:19.620Z,12.53
2018-11-05T06:25:48.082Z,13.47
2018-11-05T06:28:16.552Z,13.30
2018-11-05T06:30:45.584Z,12.70
2018-11-05T06:33:14.318Z,12.27
2018-11-05T06:35:42.812Z,13.87
2018-11-05T06:38:11.291Z,12.40
2018-11-05T06:40:39.780Z,14.70
2018-11-05T06:43:08.277Z,13.33
2018-11-05T06:45:36.825Z,14.03
2018-11-05T06:48:05.354Z,14.37
2018-11-05T06:50:33.863Z,12.80
2018-11-05T06:53:02.402Z,12.90
2018-11-05T06:55:30.855Z,12.97
2018-11-05T06:57:59.329Z,13.13
2018-11-05T07:00:27.763Z,12.20
2018-11-05T07:02:56.232Z,13.57
2018-11-05T07:05:24.713Z,12.77
2018-11-05T07:07:53.182Z,12.83
2018-11-05T07:10:21.630Z,13.07
2018-11-05T07:12:50.108Z,13.97
2018-11-05T07:15:19.445Z,13.07
2018-11-05T07:17:48.827Z,13.70
2018-11-05T07:20:18.625Z,13.67
2018-11-05T07:22:48.131Z,13.30
2018-11-05T07:25:16.752Z,13.13
2018-11-05T07:27:45.316Z,13.67
2018-11-05T07:30:16.099Z,13.53
2018-11-05T07:32:44.756Z,12.57
2018-11-05T07:35:14.582Z,12.77
2018-11-05T07:37:43.368Z,12.33
2018-11-05T07:40:13.570Z,12.80
2018-11-05T07:42:42.174Z,12.33
2018-11-05T07:45:13.808Z,12.47
2018-11-05T07:47:43.208Z,12.90
2018-11-05T07:50:13.195Z,11.80
2018-11-05T07:52:41.667Z,13.10
2018-11-05T07:55:11.687Z,13.47
2018-11-05T07:57:41.460Z,12.27
2018-11-05T08:00:19.441Z,13.10
2018-11-05T08:02:48.950Z,12.03
2018-11-05T08:05:18.457Z,12.83
2018-11-05T08:07:47.266Z,13.33
2018-11-05T08:10:15.755Z,12.07
2018-11-05T08:12:44.380Z,12.30
2018-11-05T08:15:15.679Z,11.33
2018-11-05T08:17:45.467Z,12.30
2018-11-05T08:20:13.979Z,11.90
2018-11-05T08:22:42.444Z,12.63
2018-11-05T08:25:12.004Z,11.33
2018-11-05T08:27:40.444Z,12.77
2018-11-05T08:30:14.057Z,12.93
2018-11-05T08:32:42.592Z,11.80
2018-11-05T08:35:11.934Z,13.80
2018-11-05T08:37:40.922Z,12.33
2018-11-05T08:40:15.125Z,13.17
2018-11-05T08:42:44.176Z,13.00
2018-11-05T08:45:13.834Z,12.57
2018-11-05T08:47:48.836Z,16.00
2018-11-05T08:50:26.056Z,15.20
2018-11-05T08:52:54.613Z,15.47
2018-11-05T08:55:24.504Z,14.13
2018-11-05T08:58:01.102Z,14.93
2018-11-05T09:00:41.677Z,14.23
2018-11-05T09:03:16.983Z,13.87
2018-11-05T09:05:46.709Z,14.73
2018-11-05T09:08:22.264Z,13.40
2018-11-05T09:11:00.564Z,13.70
2018-11-05T09:13:29.697Z,14.00
2018-11-05T09:15:58.236Z,13.40
2018-11-05T09:18:26.686Z,13.93
2018-11-05T09:20:55.275Z,13.63
2018-11-05T09:23:23.663Z,14.30
2018-11-05T09:25:52.104Z,13.50
2018-11-05T09:28:20.561Z,14.00
2018-11-05T09:30:49.033Z,13.27
2018-11-05T09:33:17.467Z,14.50
2018-11-05T09:35:45.945Z,13.37
2018-11-05T09:38:14.399Z,14.07
2018-11-05T09:40:42.855Z,14.30
2018-11-05T09:43:11.312Z,13.53
2018-11-05T09:45:39.969Z,14.57
2018-11-05T09:48:08.408Z,13.57
2018-11-05T09:50:36.908Z,14.30
2018-11-05T09:53:06.280Z,13.60
2018-11-05T09:55:34.839Z,14.57
2018-11-05T09:58:04.060Z,13.77
2018-11-05T10:00:32.588Z,15.17
2018-11-05T10:03:06.182Z,14.67
2018-11-05T10:05:34.547Z,13.77
2018-11-05T10:08:03.016Z,14.97
2018-11-05T10:10:31.589Z,15.07
2018-11-05T10:12:59.952Z,15.27
2018-11-05T10:15:29.349Z,15.37
2018-11-05T10:17:57.831Z,16.00
2018-11-05T10:20:26.300Z,15.47
2018-11-05T10:22:55.216Z,14.97
2018-11-05T10:25:23.634Z,14.73
2018-11-05T10:27:52.580Z,15.43
2018-11-05T10:30:22.480Z,14.97
2018-11-05T10:32:51.485Z,15.37
2018-11-05T10:35:19.939Z,14.37
2018-11-05T10:37:48.424Z,15.47
2018-11-05T10:40:18.623Z,14.77
2018-11-05T10:42:48.284Z,14.53
2018-11-05T10:45:18.282Z,14.50
2018-11-05T10:47:46.750Z,14.90
2018-11-05T10:50:16.433Z,14.37
2018-11-05T10:52:47.330Z,14.77
2018-11-05T10:55:15.868Z,14.70
2018-11-05T10:57:45.025Z,14.90
2018-11-05T11:00:26.565Z,16.40
2018-11-05T11:03:00.555Z,15.27
2018-11-05T11:05:29.875Z,14.57
2018-11-05T11:07:59.360Z,14.43
2018-11-05T11:10:28.718Z,13.80
2018-11-05T11:12:57.920Z,13.67
2018-11-05T11:15:26.482Z,15.07
2018-11-05T11:17:55.144Z,14.70
2018-11-05T11:20:23.566Z,14.40
2018-11-05T11:22:51.996Z,14.17
2018-11-05T11:25:20.480Z,14.70
2018-11-05T11:27:49.044Z,14.37
2018-11-05T11:30:17.789Z,14.87
2018-11-05T11:32:46.949Z,12.53
2018-11-05T11:35:15.444Z,14.17
2018-11-05T11:37:43.953Z,14.10
2018-11-05T11:40:15.908Z,14.47
2018-11-05T11:42:45.480Z,14.33
2018-11-05T11:45:14.683Z,14.23
2018-11-05T11:47:43.149Z,14.30
2018-11-05T11:50:12.883Z,14.43
2018-11-05T11:52:41.458Z,14.17
2018-11-05T11:55:11.910Z,13.73
2018-11-05T11:57:40.784Z,14.80
2018-11-05T12:00:14.545Z,14.07
2018-11-05T12:02:43.036Z,14.67
2018-11-05T12:05:11.617Z,14.13
2018-11-05T12:07:39.927Z,14.30
2018-11-05T12:10:11.357Z,15.60
2018-11-05T12:12:40.402Z,14.20
2018-11-05T12:15:09.880Z,14.10
2018-11-05T12:17:38.611Z,15.03
2018-11-05T12:20:10.567Z,14.50
2018-11-05T12:22:39.083Z,15.07
2018-11-05T12:25:08.005Z,14.83
2018-11-05T12:27:36.353Z,15.57
2018-11-05T12:30:05.808Z,14.43
2018-11-05T12:32:34.298Z,15.10
2018-11-05T12:35:02.735Z,14.77
2018-11-05T12:37:31.263Z,13.83
2018-11-05T12:39:59.876Z,14.20
2018-11-05T12:42:28.962Z,14.33
2018-11-05T12:44:57.548Z,13.20
2018-11-05T12:47:26.009Z,14.47
2018-11-05T12:49:54.542Z,12.87
2018-11-05T12:52:23.016Z,13.90
2018-11-05T12:54:51.502Z,14.30
2018-11-05T12:57:20.409Z,14.30
2018-11-05T12:59:48.855Z,13.87
2018-11-05T13:02:17.401Z,15.50
2018-11-05T13:04:45.945Z,15.47
2018-11-05T13:07:14.441Z,15.73
2018-11-05T13:09:42.923Z,16.77
2018-11-05T13:12:11.397Z,16.87
2018-11-05T13:14:39.846Z,15.37
2018-11-05T13:17:08.391Z,14.13
2018-11-05T13:19:36.898Z,22.63
2018-11-05T13:22:06.194Z,14.60
2018-11-05T13:24:34.600Z,15.50
2018-11-05T13:27:03.032Z,14.87
2018-11-05T13:29:31.519Z,13.97
2018-11-05T13:32:00.082Z,13.77
2018-11-05T13:34:28.516Z,14.43
2018-11-05T13:36:57.319Z,15.10
2018-11-05T13:39:25.641Z,14.43
2018-11-05T13:41:54.105Z,13.70
2018-11-05T13:44:22.574Z,15.13
2018-11-05T13:46:51.503Z,14.67
2018-11-05T13:49:19.768Z,14.30
2018-11-05T13:51:48.159Z,14.97
2018-11-05T13:54:16.683Z,15.23
2018-11-05T13:56:45.137Z,15.27
2018-11-05T13:59:13.575Z,15.77
2018-11-05T14:01:42.200Z,14.50
2018-11-05T14:04:10.748Z,14.37
2018-11-05T14:06:39.164Z,14.93
2018-11-05T14:09:08.843Z,14.00
2018-11-05T14:11:37.350Z,14.40
2018-11-05T14:14:06.179Z,15.63
2018-11-05T14:16:34.616Z,14.90
2018-11-05T14:19:03.363Z,14.80
2018-11-05T14:21:31.934Z,14.23
2018-11-05T14:24:00.393Z,14.07
2018-11-05T14:26:28.805Z,15.37
2018-11-05T14:28:58.377Z,15.73
2018-11-05T14:31:26.577Z,15.77
2018-11-05T14:33:55.271Z,14.97
2018-11-05T14:36:23.982Z,15.43
2018-11-05T14:38:52.430Z,15.47
2018-11-05T14:41:20.860Z,15.03
2018-11-05T14:43:49.305Z,14.47
2018-11-05T14:46:17.786Z,15.43
2018-11-05T14:48:46.316Z,16.17
2018-11-05T14:51:14.794Z,14.00
2018-11-05T14:53:43.277Z,15.77
2018-11-05T14:56:11.732Z,16.37
2018-11-05T14:58:40.193Z,16.07
2018-11-05T15:01:08.710Z,15.33
2018-11-05T15:03:37.191Z,15.47
2018-11-05T15:06:06.228Z,16.17
2018-11-05T15:08:34.694Z,15.60
2018-11-05T15:11:03.212Z,14.43
2018-11-05T15:13:31.765Z,15.70
2018-11-05T15:16:00.283Z,15.73
2018-11-05T15:18:28.952Z,17.23
2018-11-05T15:20:57.292Z,15.23
2018-11-05T15:23:27.792Z,15.43
2018-11-05T15:25:56.475Z,15.63
2018-11-05T15:28:25.908Z,15.40
2018-11-05T15:30:54.437Z,16.00
2018-11-05T15:33:22.958Z,15.67
2018-11-05T15:35:51.394Z,16.40
2018-11-05T15:38:19.843Z,16.87
2018-11-05T15:40:51.703Z,15.90
2018-11-05T15:43:20.137Z,16.33
2018-11-05T15:45:48.571Z,15.80
2018-11-05T15:48:17.000Z,17.07
2018-11-05T15:50:45.478Z,16.37
2018-11-05T15:53:14.283Z,17.57
2018-11-05T15:55:42.376Z,17.67
2018-11-05T15:58:10.857Z,20.27
2018-11-05T16:00:40.232Z,19.37
2018-11-05T16:03:08.770Z,18.03
2018-11-05T16:05:38.613Z,17.27
2018-11-05T16:08:07.211Z,16.83
2018-11-05T16:10:35.660Z,16.20
2018-11-05T16:13:04.157Z,17.60
2018-11-05T16:15:32.595Z,18.30
2018-11-05T16:18:01.105Z,17.13
2018-11-05T16:20:29.536Z,16.83
2018-11-05T16:22:58.021Z,16.87
2018-11-05T16:25:26.476Z,15.70
2018-11-05T16:27:55.550Z,16.60
2018-11-05T16:30:24.043Z,16.97
2018-11-05T16:32:52.601Z,16.53
2018-11-05T16:35:21.177Z,17.37
2018-11-05T16:37:49.615Z,16.40
2018-11-05T16:40:19.422Z,17.47
2018-11-05T16:42:49.148Z,18.50
2018-11-05T16:45:17.643Z,17.07
2018-11-05T16:47:46.356Z,16.13
2018-11-05T16:53:01.564Z,17.27
2018-11-05T16:55:30.577Z,16.40
2018-11-05T16:57:59.445Z,17.67
2018-11-05T17:00:28.751Z,18.10
2018-11-05T17:02:57.721Z,18.90
2018-11-05T17:05:27.049Z,23.13
2018-11-05T17:07:55.938Z,18.37
2018-11-05T17:10:24.876Z,19.03
2018-11-05T17:12:54.027Z,20.60
2018-11-05T17:15:23.227Z,20.30
2018-11-05T17:17:53.107Z,18.10
2018-11-05T17:20:21.972Z,18.77
2018-11-05T17:22:50.932Z,19.17
2018-11-05T17:28:04.342Z,18.47
2018-11-05T17:30:33.370Z,18.20
2018-11-05T17:33:02.235Z,19.50
2018-11-05T17:35:31.380Z,17.57
2018-11-05T17:38:00.836Z,17.97
2018-11-05T17:40:30.327Z,19.50
2018-11-05T17:42:59.177Z,17.70
2018-11-05T17:45:28.259Z,17.23
2018-11-05T17:48:03.641Z,19.37
2018-11-05T17:50:32.897Z,19.20
2018-11-05T17:53:02.090Z,18.43
2018-11-05T17:55:31.085Z,18.00
2018-11-05T17:58:00.610Z,18.87
2018-11-05T18:00:29.532Z,18.80
2018-11-05T18:05:55.091Z,20.37
2018-11-05T18:08:23.987Z,18.27
2018-11-05T18:10:52.903Z,18.33
2018-11-05T18:13:21.761Z,18.00
2018-11-05T18:15:50.854Z,19.03
2018-11-05T18:18:19.726Z,19.67
2018-11-05T18:20:49.293Z,17.53
2018-11-05T18:23:18.210Z,19.20
2018-11-05T18:25:47.311Z,19.33
2018-11-05T18:28:16.163Z,20.27
2018-11-05T18:30:45.209Z,18.00
2018-11-05T18:33:14.133Z,17.70
2018-11-05T18:35:43.033Z,18.77
2018-11-05T18:38:12.072Z,17.50
2018-11-05T18:40:40.775Z,20.00
2018-11-05T18:43:09.735Z,19.10
2018-11-05T18:45:38.549Z,17.70
2018-11-05T18:48:07.685Z,17.63
2018-11-05T18:50:36.542Z,17.60
2018-11-05T18:53:05.841Z,17.93
2018-11-05T18:55:34.635Z,18.23
2018-11-05T18:58:03.419Z,16.43
2018-11-05T19:00:32.287Z,18.30
2018-11-05T19:03:01.225Z,17.67
2018-11-05T19:05:30.675Z,17.80
2018-11-05T19:07:59.456Z,18.47
2018-11-05T19:10:28.258Z,17.97
2018-11-05T19:12:57.075Z,19.90
2018-11-05T19:15:26.009Z,19.67
2018-11-05T19:17:54.920Z,19.97
2018-11-05T19:20:23.698Z,19.70
2018-11-05T19:22:52.899Z,20.83
2018-11-05T19:25:21.708Z,20.60
2018-11-05T19:27:50.576Z,22.63
2018-11-05T19:30:25.111Z,20.60
2018-11-05T19:32:53.981Z,21.77
2018-11-05T19:35:23.011Z,19.50
2018-11-05T19:37:51.998Z,21.20
2018-11-05T19:40:21.120Z,19.77
2018-11-05T19:42:50.663Z,21.47
2018-11-05T19:45:22.024Z,22.00
2018-11-05T19:47:51.216Z,21.47
2018-11-05T19:50:21.532Z,19.73
2018-11-05T19:52:51.387Z,20.50
2018-11-05T19:55:20.745Z,21.43
2018-11-05T19:57:50.388Z,20.17
2018-11-05T20:00:25.563Z,20.97
2018-11-05T20:02:55.102Z,19.63
2018-11-05T20:05:24.183Z,19.80
2018-11-05T20:07:53.713Z,21.47
2018-11-05T20:10:22.290Z,19.03
2018-11-05T20:12:50.893Z,21.80
2018-11-05T20:15:19.570Z,22.13
2018-11-05T20:17:48.894Z,20.10
2018-11-05T20:20:19.227Z,20.03
2018-11-05T20:22:47.808Z,21.77
2018-11-05T20:25:16.655Z,21.67
2018-11-05T20:27:45.360Z,22.30
2018-11-05T20:30:16.557Z,20.53
2018-11-05T20:32:46.278Z,21.50
2018-11-05T20:35:14.541Z,21.83
2018-11-05T20:37:43.075Z,19.13
2018-11-05T20:40:13.974Z,20.07
2018-11-05T20:42:43.580Z,19.60
2018-11-05T20:45:12.105Z,23.17
2018-11-05T20:47:40.775Z,23.87
2018-11-05T20:50:10.046Z,22.50
2018-11-05T20:52:40.191Z,20.87
2018-11-05T20:55:10.273Z,22.83
2018-11-05T20:57:39.371Z,22.87
2018-11-05T21:00:09.919Z,23.87
2018-11-05T21:02:39.882Z,22.60
2018-11-05T21:05:08.592Z,23.03
2018-11-05T21:07:43.515Z,23.30
2018-11-05T21:10:13.106Z,24.67
2018-11-05T21:12:42.628Z,23.70
2018-11-05T21:15:13.909Z,23.27
2018-11-05T21:17:43.524Z,24.33
2018-11-05T21:20:12.463Z,22.80
2018-11-05T21:22:41.282Z,22.63
2018-11-05T21:25:10.001Z,23.67
2018-11-05T21:27:38.687Z,23.87
2018-11-05T21:30:09.450Z,24.57
2018-11-05T21:32:38.460Z,24.03
2018-11-05T21:35:08.911Z,23.33
2018-11-05T21:37:50.880Z,22.47
2018-11-05T21:40:20.078Z,23.33
2018-11-05T21:42:48.560Z,23.77
2018-11-05T21:45:17.315Z,22.73
2018-11-05T21:47:46.206Z,21.97
2018-11-05T21:50:16.247Z,23.27
2018-11-05T21:52:45.491Z,23.43
2018-11-05T21:55:13.993Z,20.50
2018-11-05T21:57:45.036Z,22.33
2018-11-05T22:00:20.871Z,22.77
2018-11-05T22:02:54.532Z,21.27
2018-11-05T22:05:25.012Z,21.80
2018-11-05T22:07:59.962Z,23.10
2018-11-05T22:10:32.162Z,23.53
2018-11-05T22:13:38.627Z,23.97
2018-11-05T22:16:07.576Z,21.00
2018-11-05T22:18:36.169Z,22.00
2018-11-05T22:21:05.020Z,23.07
2018-11-05T22:23:33.597Z,21.97
2018-11-05T22:26:02.162Z,20.27
2018-11-05T22:28:31.023Z,23.10
2018-11-05T22:30:59.700Z,22.10
2018-11-05T22:33:28.253Z,21.37
2018-11-05T22:35:57.464Z,21.70
2018-11-05T22:38:25.988Z,23.07
2018-11-05T22:40:54.527Z,20.00
2018-11-05T22:43:30.976Z,23.63
2018-11-05T22:45:59.424Z,23.40
2018-11-05T22:48:28.047Z,23.57
2018-11-05T22:50:56.672Z,21.13
2018-11-05T22:53:26.377Z,22.47
2018-11-05T22:55:55.044Z,22.17
2018-11-05T22:58:23.578Z,20.17
2018-11-05T23:00:57.385Z,20.20
2018-11-05T23:03:29.896Z,21.50
2018-11-05T23:05:59.021Z,21.57
2018-11-05T23:08:27.668Z,21.50
2018-11-05T23:10:56.601Z,22.93
2018-11-05T23:13:25.131Z,24.50
2018-11-05T23:15:53.668Z,22.00
2018-11-05T23:18:22.192Z,23.03
2018-11-05T23:20:50.764Z,20.17
2018-11-05T23:23:21.129Z,24.33
2018-11-05T23:25:49.758Z,22.23
2018-11-05T23:28:18.852Z,20.27
2018-11-05T23:30:47.421Z,23.27
2018-11-05T23:33:17.245Z,23.20
2018-11-05T23:35:53.193Z,22.00
2018-11-05T23:38:22.197Z,23.33
2018-11-05T23:40:50.946Z,22.67
2018-11-05T23:43:20.279Z,23.87
2018-11-05T23:45:51.489Z,22.60
2018-11-05T23:48:20.200Z,21.23
2018-11-05T23:50:48.876Z,23.47
2018-11-05T23:53:17.452Z,24.20
2018-11-05T23:55:46.133Z,22.80
2018-11-05T23:58:14.792Z,22.90
